Tillman, Indiana
Current Conditions -  °F | °C
As of 7:54 PM on Wednesday 22 Oct 2014 (Local Time) from KFWA Reporting Station
Few Clouds Few Clouds  
Wind Chill: 36°   Ceiling: Unl
Heat Index: 41°   Visibility: 10mi
Dew Point: 37°   Wind: 8mph
Humidity: 86%   Direction: 90°E
Pressure: 30.3"   Gusts: NA
Location:  40.9863°N, 84.8797°W
Report Text: KFWA 222354Z 09007KT 10SM FEW024 05/03 A3030 RMK AO2 SLP266 T00500028 10117 20050 58001
Loading
Personal Weather Stations






























Interactive Weather Map New forecast layout! Learn more

10-Day Weather Forecast

Advertisements
Track Severe Weather on mobile